Fairmont, West Virginia
Current Conditions -  °F | °C
As of 4:53 PM on Sunday 21 Dec 2014 (Local Time) from KCKB Reporting Station
Clear Clear  
Wind Chill: 32°   Ceiling: Unl
Heat Index: 36°   Visibility: 10mi
Dew Point: 27°   Wind: 5mph
Humidity: 70%   Direction: 20°NNE
Pressure: 30.2"   Gusts: NA
Location:  39.48°N, 80.15°W
Report Text: KCKB 212153Z 02004KT 10SM CLR 02/M03 A3020 RMK AO2 SLP233 T00221028
Loading
Personal Weather Stations






























Interactive Weather Map New forecast layout! Learn more

10-Day Weather Forecast

Advertisements
Track Severe Weather on mobile